createdAt,value
2018-10-03T00:02:01.276Z,13.30
2018-10-03T00:04:29.521Z,17.83
2018-10-03T00:06:57.828Z,16.37
2018-10-03T00:09:26.113Z,21.67
2018-10-03T00:11:54.349Z,19.27
2018-10-03T00:14:22.742Z,17.48
2018-10-03T00:16:51.115Z,10.60
2018-10-03T00:19:19.377Z,14.64
2018-10-03T00:21:47.756Z,10.88
2018-10-03T00:24:16.139Z,18.27
2018-10-03T00:26:44.346Z,12.00
2018-10-03T00:29:12.539Z,15.83
2018-10-03T00:31:40.736Z,16.30
2018-10-03T00:34:09.136Z,17.42
2018-10-03T00:36:37.360Z,14.80
2018-10-03T00:39:07.788Z,12.73
2018-10-03T00:41:36.005Z,17.32
2018-10-03T00:44:04.245Z,14.35
2018-10-03T00:46:33.670Z,13.80
2018-10-03T00:49:01.867Z,15.88
2018-10-03T00:51:30.139Z,19.32
2018-10-03T00:53:58.340Z,17.65
2018-10-03T00:56:26.757Z,19.57
2018-10-03T00:58:54.930Z,21.87
2018-10-03T01:01:23.302Z,13.47
2018-10-03T01:03:51.654Z,16.70
2018-10-03T01:06:19.892Z,20.37
2018-10-03T01:08:48.075Z,19.57
2018-10-03T01:11:16.404Z,20.70
2018-10-03T01:13:44.779Z,17.95
2018-10-03T01:16:12.955Z,23.50
2018-10-03T01:18:41.166Z,18.62
2018-10-03T01:21:09.465Z,19.75
2018-10-03T01:23:37.696Z,16.70
2018-10-03T01:26:06.037Z,16.00
2018-10-03T01:28:34.623Z,11.90
2018-10-03T01:31:02.981Z,17.70
2018-10-03T01:33:31.199Z,18.10
2018-10-03T01:35:59.463Z,16.55
2018-10-03T01:38:27.825Z,19.42
2018-10-03T01:40:55.980Z,13.30
2018-10-03T01:43:24.277Z,18.75
2018-10-03T01:45:52.484Z,16.00
2018-10-03T01:48:20.804Z,17.47
2018-10-03T01:50:49.126Z,21.45
2018-10-03T01:53:17.361Z,17.67
2018-10-03T01:55:45.535Z,19.30
2018-10-03T01:58:14.937Z,22.50
2018-10-03T02:00:43.148Z,19.60
2018-10-03T02:03:11.832Z,20.27
2018-10-03T02:05:40.185Z,17.82
2018-10-03T02:08:08.419Z,23.50
2018-10-03T02:10:36.587Z,21.55
2018-10-03T02:13:05.052Z,22.90
2018-10-03T02:15:33.417Z,15.40
2018-10-03T02:18:01.589Z,16.23
2018-10-03T02:20:29.771Z,19.62
2018-10-03T02:22:58.089Z,15.75
2018-10-03T02:25:26.402Z,14.55
2018-10-03T02:27:54.564Z,19.42
2018-10-03T02:30:22.809Z,17.30
2018-10-03T02:32:50.991Z,23.27
2018-10-03T02:35:19.886Z,24.98
2018-10-03T02:37:48.050Z,18.75
2018-10-03T02:40:16.229Z,23.55
2018-10-03T02:42:44.396Z,20.48
2018-10-03T02:45:12.791Z,24.02
2018-10-03T02:47:40.959Z,18.32
2018-10-03T02:50:09.139Z,23.55
2018-10-03T02:52:37.447Z,25.17
2018-10-03T02:55:05.685Z,18.85
2018-10-03T02:57:33.855Z,25.50
2018-10-03T03:00:02.050Z,23.22
2018-10-03T03:02:30.343Z,14.53
2018-10-03T03:04:58.607Z,19.30
2018-10-03T03:07:26.817Z,27.13
2018-10-03T03:09:55.021Z,20.97
2018-10-03T03:12:23.267Z,15.25
2018-10-03T03:14:51.512Z,15.13
2018-10-03T03:17:19.850Z,21.25
2018-10-03T03:19:48.067Z,16.65
2018-10-03T03:22:16.394Z,18.98
2018-10-03T03:24:44.661Z,11.35
2018-10-03T03:27:12.871Z,22.17
2018-10-03T03:29:42.262Z,14.47
2018-10-03T03:32:10.592Z,17.55
2018-10-03T03:34:38.878Z,29.77
2018-10-03T03:37:07.064Z,20.40
2018-10-03T03:39:35.284Z,25.85
2018-10-03T03:42:03.559Z,23.22
2018-10-03T03:44:31.801Z,15.80
2018-10-03T03:47:00.091Z,19.80
2018-10-03T03:49:28.459Z,18.77
2018-10-03T03:51:56.668Z,18.80
2018-10-03T03:54:24.844Z,18.62
2018-10-03T03:56:53.041Z,13.45
2018-10-03T03:59:21.545Z,17.73
2018-10-03T04:01:49.818Z,16.10
2018-10-03T04:04:17.988Z,15.58
2018-10-03T04:06:46.304Z,13.83
2018-10-03T04:09:15.141Z,21.45
2018-10-03T04:11:43.372Z,13.62
2018-10-03T04:14:11.644Z,22.37
2018-10-03T04:16:39.895Z,23.57
2018-10-03T04:19:08.159Z,25.25
2018-10-03T04:21:38.373Z,23.98
2018-10-03T04:24:07.914Z,19.32
2018-10-03T04:26:36.204Z,19.40
2018-10-03T04:29:05.191Z,21.55
2018-10-03T04:31:34.295Z,15.00
2018-10-03T04:34:02.863Z,14.95
2018-10-03T04:36:31.413Z,22.15
2018-10-03T04:38:59.754Z,17.95
2018-10-03T04:41:27.942Z,18.93
2018-10-03T04:43:56.124Z,21.07
2018-10-03T04:46:24.416Z,19.57
2018-10-03T04:48:52.724Z,23.52
2018-10-03T04:51:20.931Z,15.63
2018-10-03T04:53:49.129Z,14.45
2018-10-03T04:56:17.988Z,16.93
2018-10-03T04:58:46.309Z,22.25
2018-10-03T05:01:15.093Z,16.00
2018-10-03T05:03:43.431Z,18.67
2018-10-03T05:06:11.711Z,22.25
2018-10-03T05:08:39.918Z,26.52
2018-10-03T05:11:08.106Z,30.52
2018-10-03T05:13:36.379Z,19.65
2018-10-03T05:16:04.696Z,23.30
2018-10-03T05:18:32.903Z,28.67
2018-10-03T05:21:01.177Z,24.95
2018-10-03T05:23:29.374Z,26.40
2018-10-03T05:25:57.772Z,24.67
2018-10-03T05:28:26.025Z,15.10
2018-10-03T05:30:54.515Z,30.40
2018-10-03T05:33:22.761Z,25.35
2018-10-03T05:35:52.256Z,19.25
2018-10-03T05:38:20.522Z,25.05
2018-10-03T05:40:48.745Z,23.15
2018-10-03T05:43:16.931Z,17.03
2018-10-03T05:45:45.820Z,20.92
2018-10-03T05:48:15.035Z,16.37
2018-10-03T05:50:43.424Z,15.35
2018-10-03T05:53:11.740Z,20.02
2018-10-03T05:55:39.902Z,16.65
2018-10-03T05:58:08.157Z,11.78
2018-10-03T06:00:36.385Z,15.95
2018-10-03T06:03:04.639Z,14.75
2018-10-03T06:05:33.040Z,16.02
2018-10-03T06:08:01.285Z,12.15
2018-10-03T06:10:29.487Z,14.90
2018-10-03T06:12:57.848Z,15.38
2018-10-03T06:15:26.020Z,18.98
2018-10-03T06:17:54.255Z,16.42
2018-10-03T06:20:22.451Z,12.23
2018-10-03T06:22:50.721Z,19.17
2018-10-03T06:25:18.898Z,16.48
2018-10-03T06:27:47.082Z,16.60
2018-10-03T06:30:15.362Z,14.53
2018-10-03T06:32:43.722Z,16.17
2018-10-03T06:35:11.955Z,12.75
2018-10-03T06:37:40.188Z,14.53
2018-10-03T06:40:09.546Z,19.90
2018-10-03T06:42:37.926Z,19.60
2018-10-03T06:45:06.273Z,17.75
2018-10-03T06:47:34.516Z,10.98
2018-10-03T06:50:03.163Z,18.77
2018-10-03T06:52:31.493Z,13.05
2018-10-03T06:54:59.709Z,21.33
2018-10-03T06:57:28.156Z,9.30
2018-10-03T06:59:56.454Z,16.57
2018-10-03T07:02:25.473Z,9.50
2018-10-03T07:04:53.762Z,20.90
2018-10-03T07:07:21.967Z,17.50
2018-10-03T07:09:50.381Z,13.40
2018-10-03T07:12:18.798Z,13.20
2018-10-03T07:14:46.949Z,13.80
2018-10-03T07:17:15.176Z,12.13
2018-10-03T07:19:43.603Z,13.88
2018-10-03T07:22:11.836Z,16.23
2018-10-03T07:24:40.036Z,11.78
2018-10-03T07:27:08.249Z,10.65
2018-10-03T07:29:36.585Z,16.30
2018-10-03T07:32:05.021Z,13.58
2018-10-03T07:34:33.227Z,11.77
2018-10-03T07:37:01.587Z,10.82
2018-10-03T07:39:30.137Z,11.55
2018-10-03T07:41:58.362Z,11.05
2018-10-03T07:44:26.569Z,11.48
2018-10-03T07:46:55.121Z,12.60
2018-10-03T07:49:23.569Z,14.40
2018-10-03T07:51:52.563Z,10.45
2018-10-03T07:54:20.827Z,12.16
2018-10-03T07:56:49.140Z,12.50
2018-10-03T07:59:17.971Z,11.80
2018-10-03T08:01:46.204Z,13.85
2018-10-03T08:04:15.209Z,8.04
2018-10-03T08:06:43.446Z,18.50
2018-10-03T08:09:11.898Z,12.35
2018-10-03T08:11:40.271Z,12.55
2018-10-03T08:14:08.478Z,14.28
2018-10-03T08:16:36.895Z,12.53
2018-10-03T08:19:05.236Z,8.40
2018-10-03T08:21:34.241Z,13.10
2018-10-03T08:24:02.712Z,9.25
2018-10-03T08:26:31.088Z,10.28
2018-10-03T08:28:59.383Z,10.63
2018-10-03T08:31:27.648Z,19.67
2018-10-03T08:33:55.819Z,12.58
2018-10-03T08:36:24.095Z,15.35
2018-10-03T08:38:53.008Z,14.43
2018-10-03T08:41:21.232Z,9.50
2018-10-03T08:43:49.481Z,10.98
2018-10-03T08:46:17.804Z,7.35
2018-10-03T08:48:46.027Z,17.17
2018-10-03T08:51:15.127Z,14.38
2018-10-03T08:53:43.382Z,13.75
2018-10-03T08:56:11.690Z,7.70
2018-10-03T08:58:40.062Z,7.55
2018-10-03T09:01:08.272Z,8.28
2018-10-03T09:03:36.471Z,8.80
2018-10-03T09:06:04.735Z,9.20
2018-10-03T09:08:33.919Z,6.27
2018-10-03T09:11:05.068Z,8.20
2018-10-03T09:13:33.396Z,4.50
2018-10-03T09:16:01.574Z,12.45
2018-10-03T09:18:29.775Z,4.97
2018-10-03T09:20:58.996Z,8.18
2018-10-03T09:23:27.316Z,9.20
2018-10-03T09:25:56.028Z,6.55
2018-10-03T09:28:24.460Z,9.43
2018-10-03T09:30:52.831Z,8.28
2018-10-03T09:33:22.047Z,7.95
2018-10-03T09:35:50.223Z,7.95
2018-10-03T09:38:18.506Z,11.55
2018-10-03T09:40:46.906Z,15.20
2018-10-03T09:43:15.529Z,9.75
2018-10-03T09:45:44.603Z,6.95
2018-10-03T09:48:12.880Z,12.20
2018-10-03T09:50:41.313Z,5.70
2018-10-03T09:53:09.528Z,6.90
2018-10-03T09:55:37.790Z,7.37
2018-10-03T09:58:06.208Z,11.28
2018-10-03T10:00:40.123Z,6.70
2018-10-03T10:03:08.436Z,6.72
2018-10-03T10:05:36.650Z,6.65
2018-10-03T10:08:04.984Z,6.08
2018-10-03T10:10:33.290Z,9.78
2018-10-03T10:13:01.728Z,9.38
2018-10-03T10:15:30.039Z,5.13
2018-10-03T10:17:58.322Z,7.62
2018-10-03T10:20:26.529Z,7.08
2018-10-03T10:22:54.881Z,9.20
2018-10-03T10:25:23.087Z,6.97
2018-10-03T10:27:51.288Z,5.30
2018-10-03T10:30:19.588Z,7.95
2018-10-03T10:32:47.942Z,5.70
2018-10-03T10:35:16.184Z,5.70
2018-10-03T10:37:44.483Z,12.82
2018-10-03T10:40:12.663Z,8.80
2018-10-03T10:42:40.928Z,6.30
2018-10-03T10:45:09.124Z,9.50
2018-10-03T10:47:37.362Z,10.32
2018-10-03T10:50:05.874Z,8.75
2018-10-03T10:52:34.139Z,6.28
2018-10-03T10:55:02.427Z,5.17
2018-10-03T10:57:30.678Z,11.33
2018-10-03T10:59:58.893Z,4.58
2018-10-03T11:02:27.124Z,10.60
2018-10-03T11:04:55.339Z,6.22
2018-10-03T11:07:23.574Z,6.83
2018-10-03T11:09:51.808Z,6.95
2018-10-03T11:12:20.043Z,4.78
2018-10-03T11:14:48.318Z,7.72
2018-10-03T11:17:16.491Z,5.67
2018-10-03T11:19:44.655Z,5.53
2018-10-03T11:22:12.871Z,8.95
2018-10-03T11:24:41.192Z,5.08
2018-10-03T11:27:09.531Z,8.25
2018-10-03T11:29:37.771Z,8.10
2018-10-03T11:32:06.385Z,10.10
2018-10-03T11:34:34.603Z,9.45
2018-10-03T11:37:02.838Z,8.53
2018-10-03T11:39:31.052Z,8.25
2018-10-03T11:41:59.347Z,9.18
2018-10-03T11:44:27.704Z,10.23
2018-10-03T11:46:55.883Z,7.40
2018-10-03T11:49:27.020Z,3.62
2018-10-03T11:51:55.464Z,7.30
2018-10-03T11:54:23.676Z,7.28
2018-10-03T11:56:51.911Z,5.12
2018-10-03T11:59:20.417Z,6.68
2018-10-03T12:01:48.777Z,6.08
2018-10-03T12:04:17.003Z,8.28
2018-10-03T12:06:45.335Z,8.40
2018-10-03T12:09:14.111Z,6.70
2018-10-03T12:11:42.383Z,5.75
2018-10-03T12:14:11.036Z,4.58
2018-10-03T12:16:39.921Z,3.55
2018-10-03T12:19:08.671Z,8.68
2018-10-03T12:21:36.984Z,6.75
2018-10-03T12:24:05.236Z,7.70
2018-10-03T12:26:33.414Z,3.80
2018-10-03T12:29:01.588Z,6.70
2018-10-03T12:31:29.932Z,3.17
2018-10-03T12:33:58.380Z,2.87
2018-10-03T12:36:26.567Z,5.20
2018-10-03T12:38:55.274Z,2.95
2018-10-03T12:41:23.674Z,5.00
2018-10-03T12:43:51.928Z,9.08
2018-10-03T12:46:20.780Z,7.95
2018-10-03T12:48:49.022Z,6.15
2018-10-03T12:51:18.041Z,3.27
2018-10-03T12:53:46.419Z,5.45
2018-10-03T12:56:15.555Z,9.23
2018-10-03T12:58:43.850Z,2.00
2018-10-03T13:01:13.324Z,2.85
2018-10-03T13:03:47.199Z,3.62
2018-10-03T13:06:15.574Z,5.16
2018-10-03T13:08:43.881Z,5.67
2018-10-03T13:11:13.176Z,8.58
2018-10-03T13:13:41.446Z,5.37
2018-10-03T13:16:09.955Z,6.20
2018-10-03T13:18:38.148Z,5.35
2018-10-03T13:21:06.392Z,4.20
2018-10-03T13:23:35.445Z,4.97
2018-10-03T13:26:03.868Z,6.70
2018-10-03T13:28:32.453Z,5.10
2018-10-03T13:31:00.687Z,6.20
2018-10-03T13:33:29.099Z,3.62
2018-10-03T13:35:57.919Z,5.58
2018-10-03T13:38:26.132Z,5.53
2018-10-03T13:40:54.376Z,6.15
2018-10-03T13:43:22.678Z,5.97
2018-10-03T13:45:51.035Z,8.18
2018-10-03T13:48:19.294Z,7.70
2018-10-03T13:50:47.506Z,6.87
2018-10-03T13:53:15.708Z,5.75
2018-10-03T13:55:43.945Z,3.40
2018-10-03T13:58:12.394Z,5.90
2018-10-03T14:00:40.587Z,4.73
2018-10-03T14:03:10.027Z,8.73
2018-10-03T14:05:38.289Z,6.83
2018-10-03T14:08:06.906Z,6.17
2018-10-03T14:10:35.211Z,6.37
2018-10-03T14:13:03.476Z,5.12
2018-10-03T14:15:32.063Z,11.47
2018-10-03T14:18:00.387Z,8.08
2018-10-03T14:20:28.653Z,8.75
2018-10-03T14:22:56.956Z,6.67
2018-10-03T14:25:25.163Z,7.97
2018-10-03T14:27:53.371Z,10.78
2018-10-03T14:30:22.033Z,10.28
2018-10-03T14:32:50.279Z,11.73
2018-10-03T14:35:18.594Z,8.05
2018-10-03T14:37:46.808Z,5.62
2018-10-03T14:40:15.925Z,8.36
2018-10-03T14:42:44.323Z,7.40
2018-10-03T14:45:12.671Z,6.62
2018-10-03T14:47:41.001Z,5.95
2018-10-03T14:50:09.239Z,6.00
2018-10-03T14:52:37.612Z,9.08
2018-10-03T14:55:05.863Z,5.60
2018-10-03T14:57:34.203Z,7.92
2018-10-03T15:00:02.494Z,8.63
2018-10-03T15:02:30.701Z,8.30
2018-10-03T15:04:59.055Z,8.05
2018-10-03T15:07:27.282Z,7.37
2018-10-03T15:09:55.555Z,4.78
2018-10-03T15:12:23.866Z,9.63
2018-10-03T15:14:52.128Z,5.33
2018-10-03T15:17:20.330Z,6.00
2018-10-03T15:19:48.703Z,6.92
2018-10-03T15:22:16.924Z,4.10
2018-10-03T15:24:45.172Z,6.00
2018-10-03T15:27:14.062Z,4.45
2018-10-03T15:29:42.446Z,5.28
2018-10-03T15:32:10.607Z,7.83
2018-10-03T15:34:38.955Z,5.87
2018-10-03T15:37:07.165Z,7.67
2018-10-03T15:39:35.510Z,5.80
2018-10-03T15:42:03.871Z,8.57
2018-10-03T15:44:32.207Z,13.98
2018-10-03T15:47:00.596Z,5.53
2018-10-03T15:49:29.754Z,8.18
2018-10-03T15:51:58.020Z,8.70
2018-10-03T15:54:26.378Z,5.75
2018-10-03T15:56:54.637Z,10.78
2018-10-03T15:59:23.026Z,5.67
2018-10-03T16:01:51.248Z,8.50
2018-10-03T16:04:19.596Z,9.43
2018-10-03T16:06:47.904Z,7.10
2018-10-03T16:09:16.310Z,3.87
2018-10-03T16:11:44.831Z,6.60
2018-10-03T16:14:13.827Z,7.00
2018-10-03T16:16:43.484Z,8.90
2018-10-03T16:19:11.900Z,6.65
2018-10-03T16:21:40.275Z,6.80
2018-10-03T16:24:08.532Z,7.83
2018-10-03T16:26:36.803Z,10.28
2018-10-03T16:29:08.270Z,7.87
2018-10-03T16:31:36.532Z,10.28
2018-10-03T16:34:04.757Z,10.95
2018-10-03T16:36:33.124Z,7.45
2018-10-03T16:39:01.843Z,9.05
2018-10-03T16:41:30.463Z,9.17
2018-10-03T16:43:58.680Z,8.43
2018-10-03T16:46:27.015Z,7.37
2018-10-03T16:48:55.505Z,11.25
2018-10-03T16:51:23.821Z,9.13
2018-10-03T16:53:52.097Z,8.60
2018-10-03T16:56:20.356Z,9.56
2018-10-03T16:58:48.594Z,6.28
2018-10-03T17:01:16.930Z,6.33
2018-10-03T17:03:45.243Z,12.07
2018-10-03T17:06:13.671Z,6.85
2018-10-03T17:08:41.996Z,8.48
2018-10-03T17:11:10.252Z,11.75
2018-10-03T17:14:43.708Z,8.75
2018-10-03T17:17:13.007Z,7.35
2018-10-03T17:19:41.331Z,10.03
2018-10-03T17:22:09.645Z,10.15
2018-10-03T17:24:38.506Z,9.30
2018-10-03T17:27:06.990Z,13.62
2018-10-03T17:29:35.247Z,6.10
2018-10-03T17:32:03.570Z,8.95
2018-10-03T17:34:31.802Z,9.17
2018-10-03T17:37:00.099Z,9.05
2018-10-03T17:39:28.873Z,7.62
2018-10-03T17:41:58.399Z,11.60
2018-10-03T17:44:26.645Z,10.75
2018-10-03T17:46:56.363Z,9.70
2018-10-03T17:49:24.689Z,5.47
2018-10-03T17:51:53.054Z,10.72
2018-10-03T17:54:22.371Z,10.40
2018-10-03T17:56:50.595Z,5.70
2018-10-03T17:59:18.935Z,10.55
2018-10-03T18:01:51.411Z,9.30
2018-10-03T18:04:20.182Z,7.65
2018-10-03T18:06:48.462Z,7.33
2018-10-03T18:09:16.724Z,9.88
2018-10-03T18:11:45.014Z,8.98
2018-10-03T18:14:13.360Z,9.53
2018-10-03T18:16:41.695Z,8.80
2018-10-03T18:19:09.919Z,10.50
2018-10-03T18:21:38.201Z,8.98
2018-10-03T18:24:06.502Z,8.83
2018-10-03T18:26:34.723Z,8.78
2018-10-03T18:29:02.935Z,11.50
2018-10-03T18:31:31.544Z,13.83
2018-10-03T18:33:59.691Z,8.00
2018-10-03T18:36:27.965Z,8.58
2018-10-03T18:38:56.212Z,9.30
2018-10-03T18:41:24.435Z,8.73
2018-10-03T18:43:52.723Z,15.35
2018-10-03T18:46:21.560Z,8.40
2018-10-03T18:48:49.728Z,12.47
2018-10-03T18:51:18.016Z,15.32
2018-10-03T18:53:46.336Z,17.60
2018-10-03T18:56:14.623Z,13.05
2018-10-03T18:58:42.862Z,10.13
2018-10-03T19:01:11.132Z,11.33
2018-10-03T19:03:39.452Z,10.85
2018-10-03T19:06:07.696Z,10.85
2018-10-03T19:08:35.979Z,6.87
2018-10-03T19:11:04.953Z,5.92
2018-10-03T19:13:35.528Z,10.17
2018-10-03T19:16:04.067Z,9.78
2018-10-03T19:18:32.784Z,7.62
2018-10-03T19:21:01.430Z,10.58
2018-10-03T19:23:29.731Z,7.43
2018-10-03T19:25:58.347Z,7.85
2018-10-03T19:28:26.765Z,9.10
2018-10-03T19:30:55.309Z,6.80
2018-10-03T19:33:23.938Z,6.95
2018-10-03T19:35:52.371Z,5.75
2018-10-03T19:38:20.702Z,5.45
2018-10-03T19:40:48.975Z,8.47
2018-10-03T19:43:17.399Z,8.18
2018-10-03T19:45:45.899Z,7.90
2018-10-03T19:48:14.529Z,7.62
2018-10-03T19:50:42.909Z,7.72
2018-10-03T19:53:11.210Z,8.80
2018-10-03T19:55:39.967Z,8.18
2018-10-03T19:58:08.462Z,7.60
2018-10-03T20:00:36.699Z,9.20
2018-10-03T20:03:04.940Z,6.40
2018-10-03T20:05:33.194Z,4.92
2018-10-03T20:08:01.457Z,6.28
2018-10-03T20:10:30.076Z,7.43
2018-10-03T20:12:58.600Z,8.80
2018-10-03T20:15:27.071Z,9.45
2018-10-03T20:17:55.476Z,9.48
2018-10-03T20:20:23.703Z,8.90
2018-10-03T20:22:51.927Z,8.60
2018-10-03T20:25:20.145Z,6.26
2018-10-03T20:27:48.708Z,9.40
2018-10-03T20:30:17.031Z,10.25
2018-10-03T20:32:45.586Z,9.53
2018-10-03T20:35:14.252Z,10.28
2018-10-03T20:37:42.811Z,7.20
2018-10-03T20:40:11.198Z,7.87
2018-10-03T20:42:39.494Z,11.15
2018-10-03T20:45:07.824Z,6.12
2018-10-03T20:47:36.099Z,11.50
2018-10-03T20:50:04.366Z,12.28
2018-10-03T20:52:32.598Z,11.33
2018-10-03T20:55:00.876Z,12.95
2018-10-03T20:57:29.440Z,12.50
2018-10-03T20:59:59.443Z,8.83
2018-10-03T21:02:27.668Z,5.03
2018-10-03T21:04:56.097Z,9.60
2018-10-03T21:07:24.306Z,8.30
2018-10-03T21:09:52.564Z,9.23
2018-10-03T21:12:20.892Z,7.80
2018-10-03T21:14:49.379Z,10.25
2018-10-03T21:17:17.586Z,7.00
2018-10-03T21:19:45.829Z,8.78
2018-10-03T21:22:14.145Z,7.78
2018-10-03T21:24:42.441Z,9.10
2018-10-03T21:27:10.767Z,9.35
2018-10-03T21:29:39.421Z,8.15
2018-10-03T21:32:07.716Z,10.80
2018-10-03T21:34:35.947Z,6.60
2018-10-03T21:37:04.281Z,10.13
2018-10-03T21:39:32.534Z,13.23
2018-10-03T21:42:00.775Z,11.30
2018-10-03T21:44:29.106Z,5.03
2018-10-03T21:46:58.851Z,11.83
2018-10-03T21:49:27.100Z,8.53
2018-10-03T21:51:55.417Z,13.80
2018-10-03T21:54:23.693Z,16.10
2018-10-03T21:56:52.081Z,9.48
2018-10-03T21:59:20.447Z,11.16
2018-10-03T22:01:48.681Z,13.72
2018-10-03T22:04:17.436Z,14.83
2018-10-03T22:06:45.727Z,9.88
2018-10-03T22:09:14.008Z,15.05
2018-10-03T22:11:42.398Z,10.68
2018-10-03T22:14:10.733Z,9.35
2018-10-03T22:16:39.037Z,9.85
2018-10-03T22:19:07.246Z,14.23
2018-10-03T22:21:35.535Z,16.37
2018-10-03T22:24:03.780Z,13.08
2018-10-03T22:26:32.044Z,11.53
2018-10-03T22:29:00.409Z,20.57
2018-10-03T22:31:28.634Z,12.98
2018-10-03T22:33:57.942Z,11.85
2018-10-03T22:36:26.359Z,8.03
2018-10-03T22:38:54.688Z,7.33
2018-10-03T22:41:23.091Z,10.95
2018-10-03T22:43:51.448Z,11.00
2018-10-03T22:46:20.644Z,10.93
2018-10-03T22:48:48.883Z,10.50
2018-10-03T22:51:17.605Z,13.38
2018-10-03T22:53:45.951Z,15.63
2018-10-03T22:56:14.221Z,12.82
2018-10-03T22:58:42.563Z,6.65
2018-10-03T23:01:11.040Z,12.98
2018-10-03T23:03:40.024Z,14.13
2018-10-03T23:06:08.463Z,10.45
2018-10-03T23:08:36.810Z,10.60
2018-10-03T23:11:05.371Z,11.73
2018-10-03T23:13:33.606Z,13.13
2018-10-03T23:16:01.883Z,12.58
2018-10-03T23:18:30.152Z,9.83
2018-10-03T23:20:58.497Z,5.73
2018-10-03T23:23:26.772Z,10.32
2018-10-03T23:25:55.085Z,8.95
2018-10-03T23:28:23.367Z,10.25
2018-10-03T23:30:51.708Z,11.38
2018-10-03T23:33:20.969Z,12.70
2018-10-03T23:35:49.225Z,12.73
2018-10-03T23:38:17.900Z,10.70
2018-10-03T23:40:46.205Z,13.72
2018-10-03T23:43:14.624Z,8.20
2018-10-03T23:45:42.916Z,10.68
2018-10-03T23:48:11.276Z,12.75
2018-10-03T23:50:40.888Z,12.10
2018-10-03T23:53:09.329Z,11.10
2018-10-03T23:55:37.774Z,13.55
2018-10-03T23:58:06.181Z,12.58
